createdAt,value
2023-04-18T00:02:07.612Z,102451.63
2023-04-18T00:07:17.915Z,102442.56
2023-04-18T00:12:23.249Z,102444.72
2023-04-18T00:17:29.342Z,102437.91
2023-04-18T00:22:34.803Z,102445.97
2023-04-18T00:27:40.671Z,102453.75
2023-04-18T00:32:46.248Z,102455.59
2023-04-18T00:37:52.418Z,102443.38
2023-04-18T00:42:57.761Z,102441.84
2023-04-18T00:48:03.112Z,102449.06
2023-04-18T00:53:11.244Z,102455.25
2023-04-18T00:58:17.106Z,102452.88
2023-04-18T01:03:23.623Z,102442.22
2023-04-18T01:08:29.184Z,102453.22
2023-04-18T01:13:36.789Z,102451.38
2023-04-18T01:18:42.104Z,102456.75
2023-04-18T01:23:49.118Z,102448.59
2023-04-18T01:28:54.694Z,102453.22
2023-04-18T01:34:01.390Z,102457.78
2023-04-18T01:39:07.278Z,102452.88
2023-04-18T01:44:13.000Z,102459.69
2023-04-18T01:49:18.972Z,102463.59
2023-04-18T01:54:24.483Z,102462.75
2023-04-18T01:59:31.206Z,102451.28
2023-04-18T02:04:36.698Z,102455.25
2023-04-18T02:09:42.369Z,102438.56
2023-04-18T02:14:55.432Z,102450.44
2023-04-18T02:20:01.236Z,102449.81
2023-04-18T02:25:09.354Z,102445.84
2023-04-18T02:30:14.856Z,102443.81
2023-04-18T02:35:21.580Z,102440.19
2023-04-18T02:40:27.101Z,102448.53
2023-04-18T02:45:33.475Z,102447.00
2023-04-18T02:50:39.416Z,102440.75
2023-04-18T02:55:45.048Z,102441.56
2023-04-18T03:00:53.309Z,102444.75
2023-04-18T03:06:25.178Z,102437.47
2023-04-18T03:11:31.478Z,102430.81
2023-04-18T03:16:37.582Z,102431.38
2023-04-18T03:21:45.282Z,102427.47
2023-04-18T03:26:51.176Z,102435.31
2023-04-18T03:32:02.018Z,102430.66
2023-04-18T03:37:08.806Z,102432.69
2023-04-18T03:42:21.906Z,102435.66
2023-04-18T03:47:27.388Z,102425.09
2023-04-18T03:52:38.536Z,102426.34
2023-04-18T03:57:43.780Z,102428.31
2023-04-18T04:02:55.348Z,102422.19
2023-04-18T04:08:01.290Z,102424.44
2023-04-18T04:13:05.503Z,102424.03
2023-04-18T04:18:17.364Z,102421.47
2023-04-18T04:23:23.409Z,102420.38
2023-04-18T04:28:29.425Z,102422.66
2023-04-18T04:33:41.550Z,102423.13
2023-04-18T04:38:55.906Z,102423.88
2023-04-18T04:44:10.545Z,102430.50
2023-04-18T04:49:16.888Z,102426.66
2023-04-18T04:54:21.594Z,102422.38
2023-04-18T04:59:26.559Z,102428.56
2023-04-18T05:04:31.591Z,102423.19
2023-04-18T05:09:39.808Z,102416.59
2023-04-18T05:14:50.179Z,102410.66
2023-04-18T05:19:56.281Z,102413.41
2023-04-18T05:25:02.913Z,102405.28
2023-04-18T05:30:10.218Z,102405.09
2023-04-18T05:41:05.793Z,102399.78
2023-04-18T05:46:20.498Z,102399.72
2023-04-18T05:51:29.259Z,102380.59
2023-04-18T05:56:40.009Z,102398.69
2023-04-18T06:07:34.359Z,102381.41
2023-04-18T06:12:41.160Z,102385.06
2023-04-18T06:17:48.786Z,102385.13
2023-04-18T06:22:52.958Z,102388.41
2023-04-18T06:27:57.812Z,102375.28
2023-04-18T06:33:02.576Z,102385.97
2023-04-18T06:38:08.536Z,102385.88
2023-04-18T06:43:12.795Z,102368.84
2023-04-18T06:48:17.011Z,102369.72
2023-04-18T06:53:21.133Z,102375.59
2023-04-18T06:58:25.209Z,102376.19
2023-04-18T07:03:29.602Z,102359.03
2023-04-18T07:08:35.554Z,102368.63
2023-04-18T07:13:39.852Z,102371.41
2023-04-18T07:18:43.977Z,102361.03
2023-04-18T07:23:48.350Z,102368.19
2023-04-18T07:28:52.582Z,102349.56
2023-04-18T07:33:56.945Z,102347.34
2023-04-18T07:39:02.357Z,102345.16
2023-04-18T07:44:06.524Z,102351.34
2023-04-18T07:49:10.673Z,102349.69
2023-04-18T07:54:14.876Z,102339.91
2023-04-18T07:59:18.964Z,102352.69
2023-04-18T08:04:23.292Z,102344.38
2023-04-18T08:09:27.685Z,102336.47
2023-04-18T08:14:31.771Z,102331.84
2023-04-18T08:19:35.922Z,102334.41
2023-04-18T08:24:42.930Z,102329.91
2023-04-18T08:29:52.884Z,102318.28
2023-04-18T08:34:56.996Z,102321.69
2023-04-18T08:40:01.179Z,102307.38
2023-04-18T08:45:09.733Z,102305.56
2023-04-18T08:50:13.910Z,102294.50
2023-04-18T08:55:19.554Z,102289.81
2023-04-18T09:00:24.524Z,102288.41
2023-04-18T09:05:28.956Z,102297.44
2023-04-18T09:10:34.904Z,102288.03
2023-04-18T09:15:38.972Z,102285.53
2023-04-18T09:20:43.146Z,102275.72
2023-04-18T09:25:48.972Z,102271.41
2023-04-18T09:30:53.631Z,102264.06
2023-04-18T09:36:17.326Z,102246.47
2023-04-18T09:41:23.036Z,102265.28
2023-04-18T09:46:28.466Z,102263.03
2023-04-18T09:51:33.879Z,102261.81
2023-04-18T09:56:42.061Z,102256.91
2023-04-18T10:01:48.841Z,102255.50
2023-04-18T10:06:55.038Z,102256.50
2023-04-18T10:12:00.350Z,102250.34
2023-04-18T10:17:04.623Z,102240.31
2023-04-18T10:22:08.726Z,102239.81
2023-04-18T10:27:12.844Z,102184.13
2023-04-18T10:32:22.949Z,102233.91
2023-04-18T10:37:27.673Z,102224.09
2023-04-18T10:42:53.449Z,102232.28
2023-04-18T10:48:15.887Z,102221.03
2023-04-18T10:53:19.811Z,102201.38
2023-04-18T10:58:24.013Z,102206.91
2023-04-18T11:03:35.689Z,102203.66
2023-04-18T11:08:40.141Z,102202.00
2023-04-18T11:14:00.348Z,102203.88
2023-04-18T11:19:22.069Z,102197.53
2023-04-18T11:24:26.400Z,102194.84
2023-04-18T11:29:30.931Z,102180.91
2023-04-18T11:34:36.574Z,102177.88
2023-04-18T11:39:45.128Z,102174.59
2023-04-18T11:44:49.878Z,102168.47
2023-04-18T11:50:02.424Z,102172.13
2023-04-18T11:55:21.693Z,102159.41
2023-04-18T12:00:44.926Z,102156.56
2023-04-18T12:05:49.578Z,102163.13
2023-04-18T12:10:55.922Z,102157.63
2023-04-18T12:16:03.205Z,102149.44
2023-04-18T12:21:07.427Z,102156.78
2023-04-18T12:26:18.864Z,102157.19
2023-04-18T12:31:23.031Z,102139.81
2023-04-18T12:36:29.018Z,102149.03
2023-04-18T12:41:33.111Z,102138.41
2023-04-18T12:46:37.349Z,102138.41
2023-04-18T12:51:41.560Z,102151.50
2023-04-18T12:56:46.964Z,102142.28
2023-04-18T13:01:51.114Z,102131.66
2023-04-18T13:06:55.500Z,102132.06
2023-04-18T13:11:59.531Z,102117.13
2023-04-18T13:17:03.762Z,102106.91
2023-04-18T13:22:08.047Z,102100.56
2023-04-18T13:27:12.449Z,102115.50
2023-04-18T13:32:16.683Z,102117.34
2023-04-18T13:37:20.724Z,102108.34
2023-04-18T13:42:24.807Z,102099.13
2023-04-18T13:47:28.952Z,102096.91
2023-04-18T13:52:35.540Z,102097.50
2023-04-18T13:57:45.202Z,102091.75
2023-04-18T14:02:56.454Z,102093.34
2023-04-18T14:08:09.460Z,102098.47
2023-04-18T14:13:18.696Z,102094.34
2023-04-18T14:18:26.065Z,102078.41
2023-04-18T14:23:30.852Z,102080.41
2023-04-18T14:28:38.381Z,102086.91
2023-04-18T14:33:51.120Z,102093.81
2023-04-18T14:38:57.930Z,102079.44
2023-04-18T14:44:06.321Z,102080.84
2023-04-18T14:49:12.528Z,102089.13
2023-04-18T14:54:17.208Z,102081.91
2023-04-18T14:59:29.054Z,102069.34
2023-04-18T15:04:44.925Z,102084.16
2023-04-18T15:09:52.344Z,102077.88
2023-04-18T15:15:05.378Z,102069.28
2023-04-18T15:20:13.016Z,102078.13
2023-04-18T15:25:18.689Z,102073.63
2023-04-18T15:30:25.032Z,102075.22
2023-04-18T15:35:31.150Z,102081.97
2023-04-18T15:40:36.800Z,102076.28
2023-04-18T15:45:41.418Z,102088.25
2023-04-18T15:50:51.476Z,102105.16
2023-04-18T15:55:55.654Z,102094.19
2023-04-18T16:01:01.131Z,102098.25
2023-04-18T16:06:06.582Z,102103.03
2023-04-18T16:11:13.897Z,102050.63
2023-04-18T16:16:19.373Z,102102.34
2023-04-18T16:21:25.151Z,102109.03
2023-04-18T16:26:29.488Z,102113.31
2023-04-18T16:31:34.620Z,102116.44
2023-04-18T16:36:38.857Z,102113.16
2023-04-18T16:41:45.088Z,102116.25
2023-04-18T16:46:50.612Z,102124.47
2023-04-18T16:51:56.971Z,102104.03
2023-04-18T16:57:02.223Z,102119.47
2023-04-18T17:02:07.976Z,102106.25
2023-04-18T17:07:12.154Z,102117.69
2023-04-18T17:12:16.523Z,102098.88
2023-04-18T17:17:20.636Z,102107.38
2023-04-18T17:22:24.917Z,102103.38
2023-04-18T17:27:30.076Z,102098.09
2023-04-18T17:32:35.745Z,102083.84
2023-04-18T17:37:40.868Z,102094.13
2023-04-18T17:42:45.108Z,102088.59
2023-04-18T17:47:51.282Z,102090.06
2023-04-18T17:52:55.441Z,102080.53
2023-04-18T17:58:01.216Z,102104.94
2023-04-18T18:03:05.878Z,102094.25
2023-04-18T18:08:10.249Z,102098.53
2023-04-18T18:13:14.590Z,102084.22
2023-04-18T18:18:19.967Z,102075.88
2023-04-18T18:23:25.815Z,102086.94
2023-04-18T18:28:30.032Z,102085.59
2023-04-18T18:33:34.090Z,102080.41
2023-04-18T18:38:38.336Z,102078.69
2023-04-18T18:43:43.379Z,102038.66
2023-04-18T18:48:48.630Z,102079.13
2023-04-18T18:53:53.622Z,102082.44
2023-04-18T18:58:57.657Z,102077.75
2023-04-18T19:04:03.541Z,102082.59
2023-04-18T19:09:07.786Z,102058.47
2023-04-18T19:14:13.129Z,102071.72
2023-04-18T19:19:18.027Z,102066.47
2023-04-18T19:24:23.165Z,102057.41
2023-04-18T19:29:27.397Z,102068.97
2023-04-18T19:34:31.516Z,102060.56
2023-04-18T19:39:35.645Z,102062.06
2023-04-18T19:44:41.502Z,102063.59
2023-04-18T19:49:47.296Z,102017.88
2023-04-18T19:54:53.626Z,102046.91
2023-04-18T19:59:58.995Z,102058.16
2023-04-18T20:05:05.416Z,102045.75
2023-04-18T20:10:11.911Z,102048.66
2023-04-18T20:15:17.516Z,102036.91
2023-04-18T20:20:23.031Z,102024.53
2023-04-18T20:25:28.075Z,102043.34
2023-04-18T20:30:32.134Z,102048.44
2023-04-18T20:35:38.442Z,102054.16
2023-04-18T20:40:45.369Z,102052.59
2023-04-18T20:45:55.455Z,102054.41
2023-04-18T20:51:00.867Z,102039.94
2023-04-18T20:56:06.958Z,102064.03
2023-04-18T21:01:12.459Z,102061.06
2023-04-18T21:06:19.624Z,102061.25
2023-04-18T21:11:24.822Z,102063.97
2023-04-18T21:16:29.117Z,102066.75
2023-04-18T21:21:34.728Z,102058.78
2023-04-18T21:26:39.876Z,102061.75
2023-04-18T21:31:45.897Z,102063.00
2023-04-18T21:36:51.285Z,102059.09
2023-04-18T21:41:56.323Z,102050.06
2023-04-18T21:47:01.312Z,102050.94
2023-04-18T21:52:06.743Z,102054.75
2023-04-18T21:57:11.730Z,102053.34
2023-04-18T22:02:17.559Z,102050.75
2023-04-18T22:07:25.128Z,102034.56
2023-04-18T22:12:29.394Z,102054.22
2023-04-18T22:17:35.649Z,102053.66
2023-04-18T22:22:41.058Z,102053.66
2023-04-18T22:27:45.752Z,102059.25
2023-04-18T22:32:50.714Z,102042.81
2023-04-18T22:37:56.928Z,102054.25
2023-04-18T22:43:02.108Z,102043.75
2023-04-18T22:48:12.493Z,102044.13
2023-04-18T22:53:17.117Z,102041.75
2023-04-18T22:58:22.418Z,102039.13
2023-04-18T23:03:27.591Z,102043.66
2023-04-18T23:08:32.128Z,101998.50
2023-04-18T23:13:37.542Z,102036.22
2023-04-18T23:18:41.675Z,102023.31
2023-04-18T23:23:46.826Z,102027.09
2023-04-18T23:28:52.888Z,102043.38
2023-04-18T23:33:58.304Z,102022.72
2023-04-18T23:39:04.714Z,102034.41
2023-04-18T23:44:09.889Z,102017.59
2023-04-18T23:49:15.471Z,102025.84
2023-04-18T23:54:20.818Z,102032.00
2023-04-18T23:59:25.918Z,102028.00
